createdAt,value
2019-05-23T04:00:32.301Z,9.73
2019-05-23T04:02:32.270Z,9.89
2019-05-23T04:04:32.258Z,9.99
2019-05-23T04:06:32.246Z,10.30
2019-05-23T04:08:32.207Z,10.48
2019-05-23T04:10:32.187Z,10.71
2019-05-23T04:12:32.202Z,10.79
2019-05-23T04:14:39.191Z,11.07
2019-05-23T04:16:32.145Z,11.36
2019-05-23T04:18:32.113Z,11.55
2019-05-23T04:20:32.085Z,11.78
2019-05-23T04:22:32.065Z,12.17
2019-05-23T04:24:32.038Z,13.05
2019-05-23T04:26:32.023Z,14.84
2019-05-23T04:28:31.998Z,16.28
2019-05-23T04:30:31.977Z,17.23
2019-05-23T04:32:31.970Z,18.26
2019-05-23T04:34:31.927Z,18.90
2019-05-23T04:36:31.923Z,19.71
2019-05-23T04:38:35.784Z,20.11
2019-05-23T04:40:31.876Z,20.75
2019-05-23T04:42:31.853Z,21.69
2019-05-23T04:44:31.835Z,22.51
2019-05-23T04:46:31.807Z,23.25
2019-05-23T04:48:31.777Z,24.08
2019-05-23T04:50:31.766Z,24.66
2019-05-23T04:52:31.749Z,25.14
2019-05-23T04:54:31.714Z,25.38
2019-05-23T04:56:31.702Z,26.16
2019-05-23T04:58:31.675Z,26.70
2019-05-23T05:00:31.691Z,26.97
2019-05-23T05:02:31.623Z,27.37
2019-05-23T05:04:31.611Z,27.90
2019-05-23T05:06:31.600Z,27.73
2019-05-23T05:08:31.572Z,27.47
2019-05-23T05:10:31.577Z,27.26
2019-05-23T05:12:31.525Z,28.37
2019-05-23T05:14:31.492Z,29.31
2019-05-23T05:16:31.519Z,29.59
2019-05-23T05:18:31.499Z,29.17
2019-05-23T05:20:31.445Z,28.63
2019-05-23T05:22:31.413Z,28.19
2019-05-23T05:24:31.410Z,27.80
2019-05-23T05:26:31.370Z,27.75
2019-05-23T05:28:31.352Z,28.47
2019-05-23T05:30:31.329Z,30.10
2019-05-23T05:32:44.135Z,31.10
2019-05-23T05:34:32.333Z,31.93
2019-05-23T05:36:31.268Z,32.31
2019-05-23T05:38:31.236Z,32.64
2019-05-23T05:40:31.230Z,32.60
2019-05-23T05:42:31.196Z,32.51
2019-05-23T05:44:31.185Z,33.30
2019-05-23T05:46:31.165Z,33.61
2019-05-23T05:48:31.132Z,33.59
2019-05-23T05:50:31.106Z,33.80
2019-05-23T05:52:31.097Z,34.10
2019-05-23T05:54:31.074Z,33.96
2019-05-23T05:56:31.044Z,33.22
2019-05-23T05:58:31.035Z,33.32
2019-05-23T06:00:31.014Z,34.16
2019-05-23T06:02:31.067Z,34.81
2019-05-23T06:04:30.965Z,35.42
2019-05-23T06:06:30.937Z,35.85
2019-05-23T06:08:30.925Z,36.02
2019-05-23T06:10:30.911Z,36.20
2019-05-23T06:12:30.876Z,36.25
2019-05-23T06:14:30.870Z,36.05
2019-05-23T06:16:30.948Z,36.42
2019-05-23T06:18:30.814Z,36.59
2019-05-23T06:20:30.807Z,36.58
2019-05-23T06:22:30.772Z,36.79
2019-05-23T06:24:44.347Z,36.92
2019-05-23T06:26:31.744Z,36.86
2019-05-23T06:28:30.704Z,36.96
2019-05-23T06:30:32.857Z,36.18
2019-05-23T06:32:30.669Z,34.77
2019-05-23T06:34:30.708Z,34.10
2019-05-23T06:36:30.640Z,34.16
2019-05-23T06:38:30.618Z,33.95
2019-05-23T06:40:30.569Z,34.02
2019-05-23T06:42:30.562Z,35.02
2019-05-23T06:44:30.533Z,36.36
2019-05-23T06:46:30.521Z,36.68
2019-05-23T06:48:30.490Z,36.76
2019-05-23T06:50:30.498Z,36.86
2019-05-23T06:52:30.468Z,36.58
2019-05-23T06:54:30.425Z,36.73
2019-05-23T06:56:30.397Z,37.23
2019-05-23T06:58:30.393Z,37.64
2019-05-23T07:00:30.360Z,37.94
2019-05-23T07:02:32.115Z,38.21
2019-05-23T07:04:30.318Z,38.38
2019-05-23T07:06:30.301Z,38.49
2019-05-23T07:08:30.283Z,38.38
2019-05-23T07:10:30.249Z,38.23
2019-05-23T07:12:30.235Z,37.96
2019-05-23T07:14:30.223Z,38.01
2019-05-23T07:16:30.199Z,37.96
2019-05-23T07:18:30.167Z,36.59
2019-05-23T07:20:30.165Z,36.39
2019-05-23T07:22:30.128Z,36.49
2019-05-23T07:24:30.108Z,36.62
2019-05-23T07:26:30.101Z,36.68
2019-05-23T07:28:30.103Z,37.01
2019-05-23T07:30:30.041Z,37.07
2019-05-23T07:32:30.031Z,37.10
2019-05-23T07:34:30.012Z,36.58
2019-05-23T07:36:29.978Z,36.61
2019-05-23T07:38:29.978Z,36.51
2019-05-23T07:40:29.949Z,36.24
2019-05-23T07:42:29.930Z,35.86
2019-05-23T07:44:29.930Z,35.67
2019-05-23T07:46:29.881Z,35.10
2019-05-23T07:48:29.859Z,34.80
2019-05-23T07:50:29.854Z,34.67
2019-05-23T07:52:29.827Z,34.50
2019-05-23T07:54:29.796Z,34.16
2019-05-23T07:56:29.779Z,34.03
2019-05-23T07:58:29.753Z,33.49
2019-05-23T08:00:29.792Z,33.12
2019-05-23T08:02:29.712Z,33.08
2019-05-23T08:04:29.711Z,32.87
2019-05-23T08:06:29.674Z,32.67
2019-05-23T08:08:29.664Z,32.67
2019-05-23T08:10:33.787Z,32.64
2019-05-23T08:12:29.615Z,32.43
2019-05-23T08:14:29.588Z,32.26
2019-05-23T08:16:29.572Z,31.94
2019-05-23T08:18:29.556Z,31.70
2019-05-23T08:20:29.522Z,31.51
2019-05-23T08:22:29.509Z,31.51
2019-05-23T08:24:29.482Z,31.34
2019-05-23T08:26:29.480Z,31.31
2019-05-23T08:28:29.442Z,31.22
2019-05-23T08:30:29.420Z,31.33
2019-05-23T08:32:29.408Z,31.31
2019-05-23T08:34:41.625Z,30.99
2019-05-23T08:36:30.380Z,30.92
2019-05-23T08:38:29.338Z,30.75
2019-05-23T08:40:29.306Z,30.61
2019-05-23T08:42:29.307Z,30.03
2019-05-23T08:44:29.278Z,30.02
2019-05-23T08:46:29.243Z,30.18
2019-05-23T08:48:29.239Z,30.05
2019-05-23T08:50:29.207Z,30.09
2019-05-23T08:52:29.185Z,30.28
2019-05-23T08:54:29.175Z,30.03
2019-05-23T08:56:29.144Z,29.94
2019-05-23T08:58:29.120Z,29.84
2019-05-23T09:00:29.110Z,29.69
2019-05-23T09:02:29.082Z,29.66
2019-05-23T09:04:29.055Z,29.61
2019-05-23T09:06:29.050Z,29.68
2019-05-23T09:08:29.020Z,29.82
2019-05-23T09:10:29.018Z,29.88
2019-05-23T09:12:28.976Z,30.09
2019-05-23T09:14:29.019Z,30.23
2019-05-23T09:16:28.993Z,30.25
2019-05-23T09:18:28.911Z,30.28
2019-05-23T09:20:28.900Z,30.28
2019-05-23T09:22:28.874Z,30.18
2019-05-23T09:24:28.843Z,30.16
2019-05-23T09:26:28.830Z,30.23
2019-05-23T09:28:28.809Z,30.40
2019-05-23T09:30:28.779Z,30.54
2019-05-23T09:32:28.774Z,30.70
2019-05-23T09:34:28.737Z,30.87
2019-05-23T09:36:28.715Z,31.03
2019-05-23T09:38:28.703Z,31.14
2019-05-23T09:40:28.666Z,31.28
2019-05-23T09:42:28.646Z,31.31
2019-05-23T09:44:28.635Z,31.31
2019-05-23T09:46:28.605Z,31.33
2019-05-23T09:48:28.585Z,31.27
2019-05-23T09:50:28.592Z,31.28
2019-05-23T09:52:28.540Z,31.25
2019-05-23T09:54:28.542Z,31.24
2019-05-23T09:56:28.512Z,31.21
2019-05-23T09:58:28.483Z,31.29
2019-05-23T10:00:28.470Z,31.28
2019-05-23T10:02:28.435Z,31.29
2019-05-23T10:04:28.414Z,31.31
2019-05-23T10:06:28.416Z,31.22
2019-05-23T10:08:28.371Z,31.20
2019-05-23T10:10:28.356Z,31.28
2019-05-23T10:12:28.346Z,31.44
2019-05-23T10:14:28.310Z,31.25
2019-05-23T10:16:28.287Z,30.94
2019-05-23T10:18:28.277Z,30.77
2019-05-23T10:20:28.245Z,30.72
2019-05-23T10:22:28.223Z,30.90
2019-05-23T10:24:28.209Z,31.20
2019-05-23T10:26:28.180Z,31.42
2019-05-23T10:28:28.189Z,31.44
2019-05-23T10:30:28.135Z,31.15
2019-05-23T10:32:28.121Z,31.14
2019-05-23T10:34:28.106Z,30.92
2019-05-23T10:36:28.073Z,31.00
2019-05-23T10:38:29.386Z,30.68
2019-05-23T10:40:28.039Z,30.51
2019-05-23T10:42:28.009Z,30.25
2019-05-23T10:44:27.992Z,30.05
2019-05-23T10:46:27.979Z,30.10
2019-05-23T10:48:27.946Z,30.57
2019-05-23T10:50:41.946Z,30.80
2019-05-23T10:52:28.897Z,30.75
2019-05-23T10:54:27.876Z,30.50
2019-05-23T10:56:27.871Z,30.54
2019-05-23T10:58:27.845Z,30.51
2019-05-23T11:00:27.834Z,30.27
2019-05-23T11:02:27.797Z,30.48
2019-05-23T11:04:27.772Z,30.78
2019-05-23T11:06:27.790Z,30.70
2019-05-23T11:08:30.114Z,31.14
2019-05-23T11:10:27.741Z,31.33
2019-05-23T11:12:27.695Z,31.65
2019-05-23T11:14:27.677Z,31.81
2019-05-23T11:16:27.682Z,32.07
2019-05-23T11:18:27.634Z,32.04
2019-05-23T11:20:27.601Z,31.76
2019-05-23T11:22:27.585Z,31.62
2019-05-23T11:24:27.567Z,31.36
2019-05-23T11:26:27.535Z,31.25
2019-05-23T11:28:27.528Z,31.12
2019-05-23T11:30:27.499Z,31.09
2019-05-23T11:32:27.489Z,31.18
2019-05-23T11:34:27.474Z,31.31
2019-05-23T11:36:35.531Z,31.37
2019-05-23T11:38:28.567Z,31.44
2019-05-23T11:40:27.399Z,31.66
2019-05-23T11:42:27.364Z,31.37
2019-05-23T11:44:27.358Z,31.33
2019-05-23T11:46:27.324Z,31.39
2019-05-23T11:48:27.305Z,31.34
2019-05-23T11:50:27.293Z,30.91
2019-05-23T11:52:27.257Z,30.73
2019-05-23T11:54:27.247Z,30.91
2019-05-23T11:56:27.228Z,31.24
2019-05-23T11:58:27.194Z,31.47
2019-05-23T12:00:27.193Z,31.69
2019-05-23T12:02:27.187Z,31.99
2019-05-23T12:04:27.127Z,31.85
2019-05-23T12:06:27.115Z,31.36
2019-05-23T12:08:27.089Z,30.85
2019-05-23T12:10:27.068Z,30.57
2019-05-23T12:12:27.060Z,30.47
2019-05-23T12:14:27.028Z,30.65
2019-05-23T12:16:27.012Z,30.80
2019-05-23T12:18:26.978Z,30.87
2019-05-23T12:20:26.957Z,31.20
2019-05-23T12:22:26.957Z,31.54
2019-05-23T12:24:26.929Z,31.84
2019-05-23T12:26:26.907Z,32.14
2019-05-23T12:28:26.884Z,32.09
2019-05-23T12:30:26.875Z,32.07
2019-05-23T12:32:26.834Z,32.03
2019-05-23T12:34:26.910Z,32.00
2019-05-23T12:36:26.791Z,32.16
2019-05-23T12:38:26.783Z,32.18
2019-05-23T12:40:26.745Z,32.19
2019-05-23T12:42:26.734Z,32.33
2019-05-23T12:44:26.715Z,32.40
2019-05-23T12:46:26.684Z,32.40
2019-05-23T12:48:26.677Z,32.41
2019-05-23T12:50:26.646Z,32.43
2019-05-23T12:52:26.627Z,32.53
2019-05-23T12:54:26.615Z,32.51
2019-05-23T12:56:26.577Z,32.34
2019-05-23T12:58:26.574Z,31.76
2019-05-23T13:00:26.565Z,31.34
2019-05-23T13:02:26.563Z,30.97
2019-05-23T13:04:26.497Z,30.77
2019-05-23T13:06:26.489Z,30.87
2019-05-23T13:08:26.464Z,30.73
2019-05-23T13:10:26.451Z,31.17
2019-05-23T13:12:26.415Z,31.31
2019-05-23T13:14:26.393Z,31.24
2019-05-23T13:16:26.383Z,31.25
2019-05-23T13:18:26.350Z,31.25
2019-05-23T13:20:26.343Z,31.28
2019-05-23T13:22:26.316Z,31.10
2019-05-23T13:24:26.349Z,31.00
2019-05-23T13:26:26.273Z,30.80
2019-05-23T13:28:26.262Z,30.51
2019-05-23T13:30:26.220Z,30.66
2019-05-23T13:32:26.222Z,30.66
2019-05-23T13:34:26.188Z,30.43
2019-05-23T13:36:26.188Z,30.80
2019-05-23T13:38:26.164Z,30.80
2019-05-23T13:40:26.117Z,31.15
2019-05-23T13:42:26.101Z,31.44
2019-05-23T13:44:34.511Z,31.61
2019-05-23T13:46:27.047Z,31.73
2019-05-23T13:48:28.246Z,31.22
2019-05-23T13:50:26.027Z,30.65
2019-05-23T13:52:25.992Z,30.39
2019-05-23T13:54:25.969Z,30.73
2019-05-23T13:56:25.957Z,30.32
2019-05-23T13:58:25.922Z,29.93
2019-05-23T14:00:25.900Z,29.72
2019-05-23T14:02:25.891Z,29.41
2019-05-23T14:04:25.861Z,29.23
2019-05-23T14:06:25.836Z,28.94
2019-05-23T14:08:25.825Z,28.79
2019-05-23T14:10:25.793Z,29.08
2019-05-23T14:12:25.809Z,29.47
2019-05-23T14:14:25.764Z,29.73
2019-05-23T14:16:25.731Z,29.97
2019-05-23T14:18:25.720Z,29.65
2019-05-23T14:20:25.699Z,30.06
2019-05-23T14:22:25.664Z,30.27
2019-05-23T14:24:25.681Z,30.47
2019-05-23T14:26:25.636Z,30.61
2019-05-23T14:28:25.610Z,30.65
2019-05-23T14:30:25.597Z,30.70
2019-05-23T14:32:25.562Z,31.03
2019-05-23T14:34:25.533Z,30.39
2019-05-23T14:36:25.528Z,29.91
2019-05-23T14:38:30.791Z,29.36
2019-05-23T14:40:26.477Z,29.05
2019-05-23T14:42:25.463Z,28.79
2019-05-23T14:44:25.437Z,29.04
2019-05-23T14:46:25.416Z,29.51
2019-05-23T14:48:25.398Z,29.71
2019-05-23T14:50:25.361Z,30.08
2019-05-23T14:52:25.350Z,29.68
2019-05-23T14:54:25.334Z,29.16
2019-05-23T14:56:25.305Z,29.34
2019-05-23T14:58:25.296Z,29.69
2019-05-23T15:00:25.262Z,29.95
2019-05-23T15:02:25.230Z,30.37
2019-05-23T15:04:25.219Z,30.68
2019-05-23T15:06:25.192Z,30.47
2019-05-23T15:08:25.188Z,30.48
2019-05-23T15:10:25.163Z,30.55
2019-05-23T15:12:25.122Z,30.50
2019-05-23T15:14:25.114Z,30.69
2019-05-23T15:16:25.082Z,30.62
2019-05-23T15:18:25.063Z,30.48
2019-05-23T15:20:25.059Z,30.48
2019-05-23T15:22:25.022Z,30.23
2019-05-23T15:24:25.024Z,29.88
2019-05-23T15:26:24.980Z,30.08
2019-05-23T15:28:24.957Z,29.78
2019-05-23T15:30:24.950Z,29.91
2019-05-23T15:32:24.914Z,30.06
2019-05-23T15:34:24.933Z,30.16
2019-05-23T15:36:24.876Z,30.32
2019-05-23T15:38:24.853Z,30.39
2019-05-23T15:40:24.853Z,30.43
2019-05-23T15:42:24.812Z,30.51
2019-05-23T15:44:27.825Z,30.51
2019-05-23T15:46:24.784Z,30.37
2019-05-23T15:48:24.775Z,30.28
2019-05-23T15:50:24.723Z,30.18
2019-05-23T15:52:24.713Z,30.03
2019-05-23T15:54:24.689Z,29.98
2019-05-23T15:56:28.174Z,29.82
2019-05-23T15:58:24.646Z,29.69
2019-05-23T16:00:24.633Z,29.41
2019-05-23T16:02:24.605Z,29.34
2019-05-23T16:04:24.602Z,29.34
2019-05-23T16:06:24.558Z,29.17
2019-05-23T16:08:24.549Z,28.49
2019-05-23T16:10:24.514Z,28.62
2019-05-23T16:12:24.501Z,28.63
2019-05-23T16:14:24.479Z,28.62
2019-05-23T16:16:24.446Z,28.57
2019-05-23T16:18:24.977Z,28.51
2019-05-23T16:20:24.416Z,28.49
2019-05-23T16:22:24.385Z,28.47
2019-05-23T16:24:24.381Z,28.26
2019-05-23T16:26:24.377Z,27.89
2019-05-23T16:28:24.329Z,27.54
2019-05-23T16:30:24.294Z,27.58
2019-05-23T16:32:24.273Z,27.32
2019-05-23T16:34:24.262Z,27.25
2019-05-23T16:36:24.241Z,27.37
2019-05-23T16:38:24.235Z,27.39
2019-05-23T16:40:24.188Z,27.32
2019-05-23T16:42:24.167Z,27.32
2019-05-23T16:44:24.162Z,27.44
2019-05-23T16:46:24.159Z,27.54
2019-05-23T16:48:24.303Z,27.55
2019-05-23T16:50:24.247Z,27.60
2019-05-23T16:52:24.495Z,27.51
2019-05-23T16:54:24.084Z,27.58
2019-05-23T16:56:24.041Z,27.59
2019-05-23T16:58:24.033Z,27.54
2019-05-23T17:00:23.991Z,27.45
2019-05-23T17:02:23.963Z,27.44
2019-05-23T17:04:24.010Z,27.36
2019-05-23T17:06:23.935Z,27.30
2019-05-23T17:08:23.905Z,27.12
2019-05-23T17:10:23.943Z,26.99
2019-05-23T17:12:23.867Z,26.90
2019-05-23T17:14:23.864Z,26.89
2019-05-23T17:16:23.835Z,26.73
2019-05-23T17:18:23.799Z,26.63
2019-05-23T17:20:23.779Z,26.43
2019-05-23T17:22:23.756Z,26.37
2019-05-23T17:24:23.750Z,26.23
2019-05-23T17:26:23.721Z,26.22
2019-05-23T17:28:23.701Z,26.21
2019-05-23T17:30:23.698Z,25.96
2019-05-23T17:32:23.651Z,25.85
2019-05-23T17:34:23.645Z,25.78
2019-05-23T17:36:23.604Z,25.66
2019-05-23T17:38:23.577Z,25.62
2019-05-23T17:40:25.517Z,25.48
2019-05-23T17:42:23.542Z,25.44
2019-05-23T17:44:23.517Z,25.40
2019-05-23T17:46:23.506Z,25.26
2019-05-23T17:48:23.503Z,25.13
2019-05-23T17:50:23.458Z,24.91
2019-05-23T17:52:23.445Z,24.86
2019-05-23T17:54:23.417Z,24.74
2019-05-23T17:56:23.405Z,24.54
2019-05-23T17:58:23.444Z,24.43
2019-05-23T18:00:23.342Z,24.24
2019-05-23T18:02:23.337Z,24.11
2019-05-23T18:04:23.312Z,24.08
2019-05-23T18:06:23.280Z,23.84
2019-05-23T18:08:23.270Z,23.77
2019-05-23T18:10:23.241Z,23.61
2019-05-23T18:12:23.212Z,23.47
2019-05-23T18:14:23.207Z,23.40
2019-05-23T18:16:23.174Z,23.36
2019-05-23T18:18:23.152Z,23.18
2019-05-23T18:20:23.137Z,23.13
2019-05-23T18:22:23.104Z,22.99
2019-05-23T18:24:23.098Z,22.85
2019-05-23T18:26:23.060Z,22.76
2019-05-23T18:28:23.064Z,22.68
2019-05-23T18:30:23.022Z,22.57
2019-05-23T18:32:23.010Z,22.51
2019-05-23T18:34:22.992Z,22.38
2019-05-23T18:36:22.957Z,22.26
2019-05-23T18:38:22.935Z,22.20
2019-05-23T18:40:22.923Z,22.07
2019-05-23T18:42:22.905Z,21.95
2019-05-23T18:44:22.874Z,21.92
2019-05-23T18:46:22.854Z,21.76
2019-05-23T18:48:22.838Z,21.60
2019-05-23T18:50:22.804Z,21.52
2019-05-23T18:52:22.799Z,21.37
2019-05-23T18:54:22.765Z,21.27
2019-05-23T18:56:22.745Z,21.12
2019-05-23T18:58:22.739Z,21.09
2019-05-23T19:00:22.710Z,20.92
2019-05-23T19:02:22.692Z,20.96
2019-05-23T19:04:22.663Z,20.84
2019-05-23T19:06:22.635Z,20.78
2019-05-23T19:08:22.629Z,20.70
2019-05-23T19:10:22.614Z,20.58
2019-05-23T19:12:22.585Z,20.47
2019-05-23T19:14:22.562Z,20.50
2019-05-23T19:16:22.528Z,20.31
2019-05-23T19:18:22.523Z,20.34
2019-05-23T19:20:22.489Z,20.10
2019-05-23T19:22:22.461Z,19.99
2019-05-23T19:24:22.449Z,19.95
2019-05-23T19:26:22.418Z,19.71
2019-05-23T19:28:22.412Z,19.71
2019-05-23T19:30:22.389Z,19.63
2019-05-23T19:32:22.371Z,19.51
2019-05-23T19:34:22.349Z,19.31
2019-05-23T19:36:22.315Z,19.27
2019-05-23T19:38:22.285Z,19.15
2019-05-23T19:40:22.299Z,18.95
2019-05-23T19:42:22.243Z,18.89
2019-05-23T19:44:22.219Z,18.75
2019-05-23T19:46:22.226Z,18.63
2019-05-23T19:48:22.180Z,18.53
2019-05-23T19:50:22.154Z,18.35
2019-05-23T19:52:22.148Z,18.29
2019-05-23T19:54:22.116Z,18.16
2019-05-23T19:56:22.105Z,18.18
2019-05-23T19:58:22.082Z,18.01
2019-05-23T20:00:22.051Z,17.94
2019-05-23T20:02:22.034Z,17.78
2019-05-23T20:04:26.184Z,17.78
2019-05-23T20:06:22.994Z,17.65
2019-05-23T20:08:21.963Z,17.63
2019-05-23T20:10:21.940Z,17.65
2019-05-23T20:12:21.929Z,17.72
2019-05-23T20:14:21.897Z,17.76
2019-05-23T20:16:21.875Z,17.74
2019-05-23T20:18:21.865Z,17.74
2019-05-23T20:20:21.901Z,17.83
2019-05-23T20:22:21.830Z,17.78
2019-05-23T20:24:21.789Z,17.59
2019-05-23T20:26:21.781Z,17.51
2019-05-23T20:28:21.747Z,17.51
2019-05-23T20:30:21.718Z,17.41
2019-05-23T20:32:21.711Z,17.52
2019-05-23T20:34:21.681Z,17.48
2019-05-23T20:36:21.673Z,17.42
2019-05-23T20:38:21.639Z,17.36
2019-05-23T20:40:21.613Z,17.24
2019-05-23T20:42:21.598Z,17.16
2019-05-23T20:44:21.594Z,17.14
2019-05-23T20:46:21.547Z,17.09
2019-05-23T20:48:21.547Z,17.06
2019-05-23T20:50:21.510Z,17.01
2019-05-23T20:52:21.486Z,16.97
2019-05-23T20:54:21.478Z,16.90
2019-05-23T20:56:21.437Z,16.91
2019-05-23T20:58:21.436Z,16.84
2019-05-23T21:00:21.406Z,16.78
2019-05-23T21:02:21.376Z,16.78
2019-05-23T21:04:21.369Z,16.75
2019-05-23T21:06:21.330Z,16.78
2019-05-23T21:08:21.313Z,16.75
2019-05-23T21:10:21.299Z,16.72
2019-05-23T21:12:29.939Z,16.72
2019-05-23T21:14:22.260Z,16.79
2019-05-23T21:16:21.239Z,16.72
2019-05-23T21:18:21.208Z,16.72
2019-05-23T21:20:21.198Z,16.74
2019-05-23T21:22:21.161Z,16.66
2019-05-23T21:24:21.147Z,16.66
2019-05-23T21:26:21.119Z,16.78
2019-05-23T21:28:21.098Z,16.78
2019-05-23T21:30:21.083Z,16.79
2019-05-23T21:32:21.050Z,16.68
2019-05-23T21:34:22.156Z,16.72
2019-05-23T21:36:21.022Z,16.71
2019-05-23T21:38:20.995Z,16.60
2019-05-23T21:40:20.986Z,16.64
2019-05-23T21:42:20.954Z,16.56
2019-05-23T21:44:20.926Z,16.38
2019-05-23T21:46:20.911Z,16.36
2019-05-23T21:48:20.878Z,16.32
2019-05-23T21:50:20.859Z,16.28
2019-05-23T21:52:20.851Z,16.24
2019-05-23T21:54:20.824Z,16.04
2019-05-23T21:56:20.813Z,16.12
2019-05-23T21:58:20.771Z,16.08
2019-05-23T22:00:20.752Z,15.98
2019-05-23T22:02:20.749Z,15.91
2019-05-23T22:04:20.719Z,15.95
2019-05-23T22:06:20.713Z,15.88
2019-05-23T22:08:20.670Z,15.94
2019-05-23T22:10:20.643Z,15.91
2019-05-23T22:12:20.638Z,15.97
2019-05-23T22:14:20.612Z,15.91
2019-05-23T22:16:20.587Z,15.92
2019-05-23T22:18:20.574Z,15.84
2019-05-23T22:20:20.558Z,15.86
2019-05-23T22:22:20.523Z,15.83
2019-05-23T22:24:20.494Z,15.76
2019-05-23T22:26:20.640Z,15.79
2019-05-23T22:28:20.596Z,15.68
2019-05-23T22:30:22.441Z,15.67
2019-05-23T22:32:21.378Z,15.68
2019-05-23T22:34:20.656Z,15.55
2019-05-23T22:36:20.414Z,15.59
2019-05-23T22:38:20.355Z,15.65
2019-05-23T22:40:20.342Z,15.54
2019-05-23T22:42:27.365Z,15.57
2019-05-23T22:44:20.281Z,15.44
2019-05-23T22:46:27.310Z,15.40
2019-05-23T22:48:20.247Z,15.33
2019-05-23T22:50:20.221Z,15.35
2019-05-23T22:52:20.220Z,15.25
2019-05-23T22:54:20.174Z,15.19
2019-05-23T22:56:20.169Z,15.21
2019-05-23T22:58:20.152Z,15.17
2019-05-23T23:00:20.117Z,15.17
2019-05-23T23:02:20.109Z,15.14
2019-05-23T23:04:20.113Z,15.24
2019-05-23T23:06:20.053Z,15.29
2019-05-23T23:08:20.046Z,15.25
2019-05-23T23:10:20.005Z,15.29
2019-05-23T23:12:19.986Z,15.28
2019-05-23T23:14:19.978Z,15.27
2019-05-23T23:16:19.966Z,15.28
2019-05-23T23:18:19.924Z,15.27
2019-05-23T23:20:19.952Z,15.29
2019-05-23T23:22:19.897Z,15.24
2019-05-23T23:24:19.871Z,15.18
2019-05-23T23:26:19.857Z,15.17
2019-05-23T23:28:19.838Z,15.17
